createdAt,value
2019-02-18T00:00:05.651Z,40.00
2019-02-18T00:01:05.659Z,47.60
2019-02-18T00:02:05.626Z,41.30
2019-02-18T00:03:05.623Z,39.90
2019-02-18T00:04:05.611Z,42.80
2019-02-18T00:05:05.599Z,45.20
2019-02-18T00:06:05.620Z,48.40
2019-02-18T00:07:14.114Z,45.00
2019-02-18T00:08:06.568Z,48.20
2019-02-18T00:09:05.560Z,43.40
2019-02-18T00:10:05.538Z,45.70
2019-02-18T00:11:05.580Z,47.20
2019-02-18T00:12:05.518Z,48.20
2019-02-18T00:13:05.514Z,44.80
2019-02-18T00:14:05.503Z,44.40
2019-02-18T00:15:05.516Z,44.90
2019-02-18T00:16:05.475Z,41.20
2019-02-18T00:17:05.481Z,46.70
2019-02-18T00:18:05.457Z,44.70
2019-02-18T00:19:05.448Z,42.00
2019-02-18T00:20:05.438Z,40.60
2019-02-18T00:21:05.425Z,42.20
2019-02-18T00:22:05.429Z,43.50
2019-02-18T00:23:05.405Z,43.70
2019-02-18T00:24:05.390Z,44.80
2019-02-18T00:25:05.385Z,45.40
2019-02-18T00:26:05.374Z,47.50
2019-02-18T00:27:05.386Z,44.30
2019-02-18T00:28:05.365Z,50.70
2019-02-18T00:29:05.335Z,46.00
2019-02-18T00:30:05.330Z,48.00
2019-02-18T00:31:05.320Z,44.50
2019-02-18T00:32:05.309Z,48.90
2019-02-18T00:33:05.309Z,46.20
2019-02-18T00:34:05.285Z,48.50
2019-02-18T00:35:05.277Z,47.00
2019-02-18T00:36:05.273Z,44.50
2019-02-18T00:37:05.249Z,45.60
2019-02-18T00:38:05.295Z,46.20
2019-02-18T00:39:05.233Z,47.70
2019-02-18T00:40:05.220Z,44.70
2019-02-18T00:41:05.220Z,45.90
2019-02-18T00:42:05.203Z,45.00
2019-02-18T00:43:05.198Z,47.50
2019-02-18T00:44:05.188Z,46.80
2019-02-18T00:45:05.182Z,48.40
2019-02-18T00:46:05.160Z,47.60
2019-02-18T00:47:05.151Z,46.00
2019-02-18T00:48:05.138Z,45.70
2019-02-18T00:49:05.167Z,47.20
2019-02-18T00:50:05.117Z,48.40
2019-02-18T00:51:05.130Z,50.00
2019-02-18T00:52:05.095Z,48.20
2019-02-18T00:53:05.156Z,47.00
2019-02-18T00:54:05.067Z,48.50
2019-02-18T00:55:05.070Z,46.30
2019-02-18T00:56:05.052Z,47.30
2019-02-18T00:57:05.045Z,45.90
2019-02-18T00:58:05.033Z,46.10
2019-02-18T00:59:05.054Z,45.70
2019-02-18T01:00:05.005Z,48.80
2019-02-18T01:01:04.993Z,49.10
2019-02-18T01:02:04.990Z,49.70
2019-02-18T01:03:04.973Z,46.10
2019-02-18T01:04:04.986Z,51.10
2019-02-18T01:05:04.970Z,51.80
2019-02-18T01:06:04.949Z,49.50
2019-02-18T01:07:04.934Z,47.10
2019-02-18T01:08:04.926Z,47.90
2019-02-18T01:09:04.915Z,46.20
2019-02-18T01:10:04.902Z,48.80
2019-02-18T01:11:04.903Z,49.60
2019-02-18T01:12:04.880Z,47.10
2019-02-18T01:13:04.866Z,46.70
2019-02-18T01:14:04.876Z,49.00
2019-02-18T01:15:04.847Z,49.40
2019-02-18T01:16:04.850Z,49.40
2019-02-18T01:17:04.822Z,51.50
2019-02-18T01:18:04.824Z,49.30
2019-02-18T01:19:04.800Z,49.40
2019-02-18T01:20:04.791Z,49.30
2019-02-18T01:21:04.808Z,50.90
2019-02-18T01:22:04.784Z,46.10
2019-02-18T01:23:04.762Z,48.60
2019-02-18T01:24:04.751Z,46.80
2019-02-18T01:25:04.735Z,47.90
2019-02-18T01:26:04.734Z,49.90
2019-02-18T01:27:04.752Z,50.30
2019-02-18T01:28:04.702Z,48.90
2019-02-18T01:29:04.695Z,48.00
2019-02-18T01:30:04.685Z,48.70
2019-02-18T01:31:04.671Z,52.20
2019-02-18T01:32:04.690Z,52.80
2019-02-18T01:33:04.649Z,49.50
2019-02-18T01:34:04.649Z,48.60
2019-02-18T01:35:04.627Z,51.00
2019-02-18T01:36:04.624Z,49.40
2019-02-18T01:37:04.634Z,50.10
2019-02-18T01:38:04.612Z,47.40
2019-02-18T01:39:04.587Z,51.10
2019-02-18T01:40:04.579Z,49.90
2019-02-18T01:41:04.587Z,50.30
2019-02-18T01:42:04.554Z,49.00
2019-02-18T01:43:04.579Z,48.00
2019-02-18T01:44:04.537Z,44.50
2019-02-18T01:45:04.527Z,47.10
2019-02-18T01:46:04.520Z,48.30
2019-02-18T01:47:04.506Z,49.80
2019-02-18T01:48:04.494Z,46.60
2019-02-18T01:49:04.493Z,50.90
2019-02-18T01:50:04.487Z,47.80
2019-02-18T01:51:04.463Z,50.50
2019-02-18T01:52:04.451Z,52.70
2019-02-18T01:53:04.445Z,46.40
2019-02-18T01:54:04.433Z,49.70
2019-02-18T01:55:04.419Z,49.50
2019-02-18T01:56:04.405Z,49.50
2019-02-18T01:57:04.398Z,53.30
2019-02-18T01:58:04.413Z,52.20
2019-02-18T01:59:04.377Z,58.10
2019-02-18T02:00:04.366Z,52.80
2019-02-18T02:01:04.357Z,52.00
2019-02-18T02:02:04.344Z,50.20
2019-02-18T02:03:04.338Z,52.30
2019-02-18T02:04:04.331Z,51.30
2019-02-18T02:05:04.318Z,47.60
2019-02-18T02:06:04.297Z,52.10
2019-02-18T02:07:04.287Z,55.20
2019-02-18T02:08:04.274Z,53.00
2019-02-18T02:09:04.267Z,55.30
2019-02-18T02:10:04.287Z,59.60
2019-02-18T02:11:04.246Z,51.20
2019-02-18T02:12:04.231Z,57.20
2019-02-18T02:13:04.244Z,59.40
2019-02-18T02:14:04.216Z,57.90
2019-02-18T02:15:04.198Z,57.90
2019-02-18T02:16:04.230Z,53.60
2019-02-18T02:17:04.176Z,56.70
2019-02-18T02:18:04.165Z,54.80
2019-02-18T02:19:04.164Z,61.40
2019-02-18T02:20:04.149Z,59.70
2019-02-18T02:21:04.133Z,58.00
2019-02-18T02:22:04.131Z,55.60
2019-02-18T02:23:04.112Z,59.60
2019-02-18T02:24:04.108Z,53.20
2019-02-18T02:25:04.099Z,55.90
2019-02-18T02:26:04.101Z,56.00
2019-02-18T02:27:04.079Z,55.60
2019-02-18T02:28:04.063Z,56.70
2019-02-18T02:29:04.052Z,52.90
2019-02-18T02:30:04.051Z,54.90
2019-02-18T02:31:04.027Z,49.30
2019-02-18T02:32:04.029Z,54.20
2019-02-18T02:33:04.010Z,50.40
2019-02-18T02:34:03.994Z,57.40
2019-02-18T02:35:03.984Z,51.80
2019-02-18T02:36:03.994Z,51.70
2019-02-18T02:37:03.978Z,48.60
2019-02-18T02:38:07.829Z,53.20
2019-02-18T02:39:03.944Z,51.10
2019-02-18T02:40:03.939Z,51.80
2019-02-18T02:41:03.923Z,53.70
2019-02-18T02:42:03.941Z,50.30
2019-02-18T02:43:03.905Z,44.70
2019-02-18T02:44:03.892Z,51.80
2019-02-18T02:45:03.879Z,55.30
2019-02-18T02:46:03.864Z,56.10
2019-02-18T02:47:03.858Z,47.50
2019-02-18T02:48:03.894Z,56.20
2019-02-18T02:49:03.877Z,56.00
2019-02-18T02:50:03.824Z,52.60
2019-02-18T02:51:03.820Z,53.60
2019-02-18T02:52:03.841Z,45.20
2019-02-18T02:53:03.794Z,46.10
2019-02-18T02:54:03.790Z,43.90
2019-02-18T02:55:03.773Z,48.30
2019-02-18T02:56:03.761Z,50.70
2019-02-18T02:57:03.744Z,57.30
2019-02-18T02:58:03.739Z,58.20
2019-02-18T02:59:03.743Z,61.30
2019-02-18T03:00:03.718Z,58.70
2019-02-18T03:01:03.711Z,55.80
2019-02-18T03:02:03.699Z,49.60
2019-02-18T03:03:03.683Z,42.00
2019-02-18T03:04:03.680Z,39.20
2019-02-18T03:05:03.668Z,45.10
2019-02-18T03:06:03.662Z,39.50
2019-02-18T03:07:03.648Z,40.60
2019-02-18T03:08:03.631Z,58.80
2019-02-18T03:09:03.631Z,62.80
2019-02-18T03:10:03.611Z,59.20
2019-02-18T03:11:03.595Z,54.20
2019-02-18T03:12:03.612Z,44.00
2019-02-18T03:13:03.590Z,53.50
2019-02-18T03:14:03.578Z,56.00
2019-02-18T03:15:03.551Z,57.00
2019-02-18T03:16:03.551Z,59.00
2019-02-18T03:17:03.536Z,58.20
2019-02-18T03:18:03.524Z,53.80
2019-02-18T03:19:03.568Z,66.30
2019-02-18T03:20:03.498Z,68.80
2019-02-18T03:21:03.487Z,74.10
2019-02-18T03:22:03.482Z,76.20
2019-02-18T03:23:03.470Z,68.40
2019-02-18T03:24:03.459Z,64.30
2019-02-18T03:25:03.513Z,66.40
2019-02-18T03:26:03.440Z,53.50
2019-02-18T03:27:03.433Z,53.40
2019-02-18T03:28:03.417Z,53.50
2019-02-18T03:29:03.406Z,53.60
2019-02-18T03:30:03.401Z,56.00
2019-02-18T03:31:03.405Z,66.50
2019-02-18T03:32:03.368Z,68.40
2019-02-18T03:33:03.369Z,65.20
2019-02-18T03:34:03.353Z,69.90
2019-02-18T03:35:03.367Z,71.70
2019-02-18T03:36:03.355Z,69.30
2019-02-18T03:37:03.315Z,73.70
2019-02-18T03:38:03.314Z,76.50
2019-02-18T03:39:03.303Z,68.80
2019-02-18T03:40:03.294Z,77.50
2019-02-18T03:41:03.695Z,70.80
2019-02-18T03:42:03.270Z,71.60
2019-02-18T03:43:03.253Z,71.90
2019-02-18T03:44:03.244Z,71.20
2019-02-18T03:45:03.234Z,75.20
2019-02-18T03:46:03.225Z,72.70
2019-02-18T03:47:03.215Z,78.20
2019-02-18T03:48:03.224Z,69.00
2019-02-18T03:49:03.194Z,74.10
2019-02-18T03:50:03.175Z,66.30
2019-02-18T03:51:03.177Z,73.10
2019-02-18T03:52:03.160Z,62.20
2019-02-18T03:53:03.143Z,73.20
2019-02-18T03:54:03.139Z,71.10
2019-02-18T03:55:03.126Z,67.40
2019-02-18T03:56:03.124Z,66.60
2019-02-18T03:57:03.118Z,66.60
2019-02-18T03:58:03.089Z,59.60
2019-02-18T03:59:03.081Z,61.50
2019-02-18T04:00:03.077Z,69.20
2019-02-18T04:01:03.057Z,64.00
2019-02-18T04:02:03.052Z,64.40
2019-02-18T04:03:03.044Z,63.80
2019-02-18T04:04:03.036Z,58.40
2019-02-18T04:05:03.024Z,55.00
2019-02-18T04:06:03.002Z,61.90
2019-02-18T04:07:03.033Z,72.90
2019-02-18T04:08:02.989Z,85.30
2019-02-18T04:09:02.997Z,75.90
2019-02-18T04:10:02.962Z,80.10
2019-02-18T04:11:02.972Z,77.70
2019-02-18T04:12:02.949Z,74.20
2019-02-18T04:13:02.953Z,79.20
2019-02-18T04:14:02.924Z,82.80
2019-02-18T04:15:02.920Z,82.90
2019-02-18T04:16:02.910Z,81.20
2019-02-18T04:17:02.893Z,82.70
2019-02-18T04:18:02.888Z,83.80
2019-02-18T04:19:02.882Z,88.40
2019-02-18T04:20:02.857Z,85.00
2019-02-18T04:21:02.844Z,90.90
2019-02-18T04:22:02.842Z,83.90
2019-02-18T04:23:02.833Z,89.60
2019-02-18T04:24:02.866Z,84.60
2019-02-18T04:25:02.804Z,85.80
2019-02-18T04:26:02.792Z,69.10
2019-02-18T04:27:02.777Z,72.40
2019-02-18T04:28:02.785Z,78.90
2019-02-18T04:29:02.756Z,82.30
2019-02-18T04:30:02.755Z,81.50
2019-02-18T04:31:02.740Z,87.30
2019-02-18T04:32:02.728Z,79.10
2019-02-18T04:33:02.711Z,88.70
2019-02-18T04:34:02.726Z,89.20
2019-02-18T04:35:02.701Z,89.70
2019-02-18T04:36:02.684Z,84.80
2019-02-18T04:37:02.674Z,87.70
2019-02-18T04:38:02.659Z,86.90
2019-02-18T04:39:02.668Z,69.10
2019-02-18T04:40:02.640Z,72.80
2019-02-18T04:41:02.660Z,70.40
2019-02-18T04:42:02.622Z,74.60
2019-02-18T04:43:02.605Z,88.90
2019-02-18T04:44:02.600Z,83.80
2019-02-18T04:45:02.583Z,86.70
2019-02-18T04:46:02.577Z,86.00
2019-02-18T04:47:02.586Z,89.60
2019-02-18T04:48:02.567Z,90.10
2019-02-18T04:49:02.547Z,95.70
2019-02-18T04:50:02.535Z,94.20
2019-02-18T04:51:02.525Z,92.50
2019-02-18T04:52:02.536Z,88.70
2019-02-18T04:53:02.497Z,94.10
2019-02-18T04:54:02.491Z,92.90
2019-02-18T04:55:02.481Z,82.70
2019-02-18T04:56:02.465Z,83.80
2019-02-18T04:57:02.459Z,80.80
2019-02-18T04:58:02.454Z,81.70
2019-02-18T04:59:02.435Z,77.20
2019-02-18T05:00:02.423Z,69.60
2019-02-18T05:01:03.063Z,79.60
2019-02-18T05:02:02.406Z,86.60
2019-02-18T05:03:02.404Z,95.30
2019-02-18T05:04:02.382Z,88.60
2019-02-18T05:05:02.367Z,100.80
2019-02-18T05:06:02.366Z,88.40
2019-02-18T05:07:02.345Z,100.90
2019-02-18T05:08:02.382Z,98.30
2019-02-18T05:09:05.202Z,83.40
2019-02-18T05:10:02.352Z,105.30
2019-02-18T05:11:02.303Z,94.30
2019-02-18T05:12:02.291Z,90.40
2019-02-18T05:13:02.288Z,83.90
2019-02-18T05:14:02.285Z,91.30
2019-02-18T05:15:02.268Z,82.10
2019-02-18T05:16:02.253Z,80.10
2019-02-18T05:17:02.247Z,78.70
2019-02-18T05:18:02.232Z,84.00
2019-02-18T05:19:02.260Z,83.80
2019-02-18T05:20:02.235Z,97.40
2019-02-18T05:21:02.204Z,102.60
2019-02-18T05:22:02.204Z,100.00
2019-02-18T05:23:02.176Z,108.60
2019-02-18T05:24:02.171Z,106.70
2019-02-18T05:25:02.195Z,113.40
2019-02-18T05:26:02.140Z,102.40
2019-02-18T05:27:02.137Z,110.80
2019-02-18T05:28:02.132Z,98.20
2019-02-18T05:29:02.199Z,108.70
2019-02-18T05:30:02.098Z,104.50
2019-02-18T05:31:02.098Z,103.60
2019-02-18T05:32:02.076Z,104.80
2019-02-18T05:33:02.068Z,105.20
2019-02-18T05:34:02.060Z,109.10
2019-02-18T05:35:02.073Z,78.50
2019-02-18T05:36:02.050Z,85.90
2019-02-18T05:37:02.022Z,101.20
2019-02-18T05:38:02.012Z,86.70
2019-02-18T05:39:02.007Z,86.90
2019-02-18T05:40:02.003Z,87.80
2019-02-18T05:41:01.998Z,82.30
2019-02-18T05:42:01.970Z,88.10
2019-02-18T05:43:01.959Z,83.10
2019-02-18T05:44:01.947Z,91.80
2019-02-18T05:45:01.940Z,88.30
2019-02-18T05:46:01.954Z,97.70
2019-02-18T05:47:01.916Z,100.70
2019-02-18T05:48:01.906Z,118.30
2019-02-18T05:49:01.894Z,105.90
2019-02-18T05:50:01.884Z,101.00
2019-02-18T05:51:01.897Z,109.20
2019-02-18T05:52:01.865Z,83.30
2019-02-18T05:53:01.867Z,104.30
2019-02-18T05:54:01.841Z,112.40
2019-02-18T05:55:01.843Z,97.50
2019-02-18T05:56:01.848Z,116.20
2019-02-18T05:57:01.816Z,78.90
2019-02-18T05:58:01.805Z,78.50
2019-02-18T05:59:01.791Z,113.10
2019-02-18T06:00:01.787Z,100.40
2019-02-18T06:01:01.781Z,93.50
2019-02-18T06:02:01.763Z,95.70
2019-02-18T06:03:01.745Z,105.00
2019-02-18T06:04:01.743Z,106.70
2019-02-18T06:05:01.733Z,111.70
2019-02-18T06:06:01.712Z,108.50
2019-02-18T06:07:01.709Z,110.50
2019-02-18T06:08:01.699Z,104.80
2019-02-18T06:09:01.682Z,119.00
2019-02-18T06:10:01.675Z,120.00
2019-02-18T06:11:01.664Z,104.00
2019-02-18T06:12:01.657Z,111.10
2019-02-18T06:13:01.646Z,102.30
2019-02-18T06:14:01.635Z,118.10
2019-02-18T06:15:01.619Z,123.80
2019-02-18T06:16:01.611Z,113.20
2019-02-18T06:17:02.846Z,117.40
2019-02-18T06:18:01.605Z,107.20
2019-02-18T06:19:01.610Z,104.40
2019-02-18T06:20:01.568Z,107.40
2019-02-18T06:21:01.553Z,111.30
2019-02-18T06:22:01.546Z,118.90
2019-02-18T06:23:01.543Z,109.90
2019-02-18T06:24:01.531Z,111.50
2019-02-18T06:25:01.534Z,111.60
2019-02-18T06:26:01.501Z,105.80
2019-02-18T06:27:01.484Z,119.00
2019-02-18T06:28:01.488Z,110.30
2019-02-18T06:29:01.470Z,108.70
2019-02-18T06:30:01.459Z,114.80
2019-02-18T06:31:01.442Z,108.20
2019-02-18T06:32:01.476Z,102.50
2019-02-18T06:33:01.437Z,105.60
2019-02-18T06:34:01.410Z,104.10
2019-02-18T06:35:01.400Z,95.10
2019-02-18T06:36:01.532Z,97.00
2019-02-18T06:37:01.379Z,99.50
2019-02-18T06:38:01.401Z,94.20
2019-02-18T06:39:01.361Z,95.50
2019-02-18T06:40:01.364Z,98.10
2019-02-18T06:41:01.343Z,92.30
2019-02-18T06:42:01.322Z,82.70
2019-02-18T06:43:01.314Z,84.20
2019-02-18T06:44:01.344Z,79.00
2019-02-18T06:45:01.298Z,76.30
2019-02-18T06:46:01.285Z,71.30
2019-02-18T06:47:01.275Z,71.40
2019-02-18T06:48:01.263Z,69.20
2019-02-18T06:49:01.343Z,66.80
2019-02-18T06:50:01.268Z,71.40
2019-02-18T06:51:01.238Z,65.40
2019-02-18T06:52:01.220Z,65.00
2019-02-18T06:53:01.204Z,60.60
2019-02-18T06:54:01.195Z,61.70
2019-02-18T06:55:01.182Z,64.40
2019-02-18T06:56:01.184Z,64.80
2019-02-18T06:57:01.166Z,67.00
2019-02-18T06:58:01.155Z,91.90
2019-02-18T06:59:01.145Z,148.50
2019-02-18T07:00:01.136Z,206.30
2019-02-18T07:01:01.143Z,227.00
2019-02-18T07:02:01.114Z,132.40
2019-02-18T07:03:01.100Z,125.50
2019-02-18T07:04:01.096Z,79.20
2019-02-18T07:05:01.079Z,70.60
2019-02-18T07:06:01.073Z,63.10
2019-02-18T07:07:01.068Z,55.40
2019-02-18T07:08:01.058Z,60.10
2019-02-18T07:09:01.037Z,52.20
2019-02-18T07:10:01.030Z,52.70
2019-02-18T07:11:01.027Z,55.40
2019-02-18T07:12:01.006Z,52.20
2019-02-18T07:13:01.041Z,53.40
2019-02-18T07:14:00.983Z,74.00
2019-02-18T07:15:00.972Z,79.40
2019-02-18T07:16:00.961Z,81.10
2019-02-18T07:17:00.948Z,65.00
2019-02-18T07:18:00.941Z,58.20
2019-02-18T07:19:00.937Z,53.50
2019-02-18T07:20:00.934Z,64.70
2019-02-18T07:21:00.905Z,66.10
2019-02-18T07:22:00.891Z,61.80
2019-02-18T07:23:00.887Z,48.30
2019-02-18T07:24:00.890Z,44.20
2019-02-18T07:25:00.865Z,44.60
2019-02-18T07:26:00.855Z,48.90
2019-02-18T07:27:00.849Z,45.80
2019-02-18T07:28:00.853Z,40.80
2019-02-18T07:29:00.826Z,44.60
2019-02-18T07:30:00.826Z,43.20
2019-02-18T07:31:00.801Z,45.30
2019-02-18T07:32:00.782Z,41.40
2019-02-18T07:33:00.773Z,42.80
2019-02-18T07:34:00.806Z,46.60
2019-02-18T07:35:00.761Z,45.50
2019-02-18T07:36:01.195Z,41.40
2019-02-18T07:37:00.730Z,42.60
2019-02-18T07:38:00.726Z,45.20
2019-02-18T07:39:00.707Z,42.70
2019-02-18T07:40:01.980Z,47.60
2019-02-18T07:41:00.693Z,46.40
2019-02-18T07:42:00.682Z,46.70
2019-02-18T07:43:00.685Z,42.40
2019-02-18T07:44:00.659Z,42.70
2019-02-18T07:45:00.664Z,44.90
2019-02-18T07:46:00.671Z,49.00
2019-02-18T07:47:00.624Z,46.60
2019-02-18T07:48:00.616Z,40.00
2019-02-18T07:49:00.602Z,44.90
2019-02-18T07:50:00.595Z,37.10
2019-02-18T07:51:00.575Z,44.90
2019-02-18T07:52:00.578Z,41.80
2019-02-18T07:53:00.581Z,41.50
2019-02-18T07:54:00.543Z,40.30
2019-02-18T07:55:00.534Z,42.20
2019-02-18T07:56:00.574Z,41.70
2019-02-18T07:57:00.511Z,42.60
2019-02-18T07:58:00.505Z,39.70
2019-02-18T07:59:00.490Z,38.70
2019-02-18T08:00:00.486Z,40.60
2019-02-18T08:01:00.469Z,42.40
2019-02-18T08:02:00.475Z,41.40
2019-02-18T08:03:00.453Z,37.30
2019-02-18T08:04:00.440Z,40.00
2019-02-18T08:05:02.271Z,38.90
2019-02-18T08:06:00.447Z,38.80
2019-02-18T08:07:00.408Z,44.20
2019-02-18T08:08:00.402Z,44.80
2019-02-18T08:09:00.382Z,50.60
2019-02-18T08:10:00.443Z,39.20
2019-02-18T08:11:00.367Z,44.30
2019-02-18T08:12:00.360Z,40.00
2019-02-18T08:13:00.344Z,40.50
2019-02-18T08:14:00.412Z,42.30
2019-02-18T08:15:00.315Z,42.00
2019-02-18T08:16:00.312Z,39.40
2019-02-18T08:17:00.297Z,41.60
2019-02-18T08:18:00.291Z,40.50
2019-02-18T08:19:00.280Z,40.70
2019-02-18T08:20:00.303Z,40.30
2019-02-18T08:21:00.251Z,44.80
2019-02-18T08:22:00.246Z,45.50
2019-02-18T08:23:00.240Z,45.40
2019-02-18T08:24:00.493Z,41.50
2019-02-18T08:25:00.302Z,38.80
2019-02-18T08:26:00.220Z,38.90
2019-02-18T08:27:00.220Z,37.00
2019-02-18T08:28:00.176Z,39.90
2019-02-18T08:29:00.193Z,38.30
2019-02-18T08:30:00.339Z,36.20
2019-02-18T08:31:00.150Z,39.00
2019-02-18T08:32:00.142Z,40.00
2019-02-18T08:33:00.131Z,37.10
2019-02-18T08:34:00.126Z,40.30
2019-02-18T08:35:00.280Z,38.50
2019-02-18T08:36:00.403Z,38.60
2019-02-18T08:37:00.083Z,36.20
2019-02-18T08:38:00.072Z,38.90
2019-02-18T08:39:00.115Z,38.50
2019-02-18T08:40:00.216Z,40.20
2019-02-18T08:41:00.040Z,38.80
2019-02-18T08:42:00.045Z,38.50
2019-02-18T08:43:00.018Z,44.50
2019-02-18T08:44:00.009Z,38.30
2019-02-18T08:45:00.004Z,44.40
2019-02-18T08:45:59.996Z,39.50
2019-02-18T08:46:59.979Z,43.60
2019-02-18T08:47:59.958Z,39.50
2019-02-18T08:48:59.952Z,41.60
2019-02-18T08:49:59.947Z,40.40
2019-02-18T08:50:59.955Z,39.50
2019-02-18T08:51:59.983Z,39.10
2019-02-18T08:52:59.906Z,41.80
2019-02-18T08:53:59.897Z,39.20
2019-02-18T08:54:59.897Z,37.10
2019-02-18T08:55:59.872Z,39.60
2019-02-18T08:56:59.869Z,35.00
2019-02-18T08:57:59.859Z,38.70
2019-02-18T08:58:59.841Z,37.50
2019-02-18T08:59:59.835Z,36.90
2019-02-18T09:01:02.451Z,35.50
2019-02-18T09:01:59.815Z,40.30
2019-02-18T09:02:59.793Z,36.30
2019-02-18T09:03:59.782Z,36.60
2019-02-18T09:04:59.793Z,37.80
2019-02-18T09:05:59.759Z,37.70
2019-02-18T09:06:59.800Z,41.20
2019-02-18T09:07:59.750Z,35.00
2019-02-18T09:08:59.729Z,39.80
2019-02-18T09:09:59.718Z,36.10
2019-02-18T09:10:59.711Z,35.70
2019-02-18T09:11:59.699Z,34.50
2019-02-18T09:12:59.725Z,35.30
2019-02-18T09:13:59.671Z,33.70
2019-02-18T09:14:59.664Z,31.90
2019-02-18T09:16:00.579Z,34.80
2019-02-18T09:16:59.640Z,32.00
2019-02-18T09:17:59.657Z,34.80
2019-02-18T09:18:59.656Z,34.20
2019-02-18T09:19:59.612Z,35.00
2019-02-18T09:20:59.604Z,30.70
2019-02-18T09:21:59.591Z,32.10
2019-02-18T09:22:59.572Z,34.60
2019-02-18T09:23:59.561Z,36.40
2019-02-18T09:24:59.560Z,36.60
2019-02-18T09:25:59.598Z,35.80
2019-02-18T09:26:59.528Z,42.30
2019-02-18T09:27:59.543Z,34.00
2019-02-18T09:28:59.524Z,36.20
2019-02-18T09:29:59.503Z,35.40
2019-02-18T09:30:59.487Z,36.00
2019-02-18T09:31:59.473Z,33.80
2019-02-18T09:32:59.470Z,33.60
2019-02-18T09:33:59.457Z,34.50
2019-02-18T09:35:02.038Z,36.80
2019-02-18T09:35:59.439Z,34.70
2019-02-18T09:36:59.420Z,33.70
2019-02-18T09:37:59.410Z,35.50
2019-02-18T09:38:59.399Z,34.40
2019-02-18T09:39:59.387Z,36.40
2019-02-18T09:40:59.395Z,31.10
2019-02-18T09:41:59.378Z,34.00
2019-02-18T09:42:59.358Z,33.10
2019-02-18T09:43:59.343Z,31.70
2019-02-18T09:44:59.338Z,30.30
2019-02-18T09:45:59.336Z,31.20
2019-02-18T09:46:59.312Z,28.90
2019-02-18T09:47:59.299Z,30.30
2019-02-18T09:48:59.288Z,33.40
2019-02-18T09:49:59.282Z,33.20
2019-02-18T09:51:00.085Z,33.40
2019-02-18T09:51:59.267Z,31.30
2019-02-18T09:52:59.254Z,31.20
2019-02-18T09:53:59.256Z,31.10
2019-02-18T09:54:59.224Z,33.40
2019-02-18T09:55:59.248Z,30.20
2019-02-18T09:56:59.229Z,30.80
2019-02-18T09:57:59.194Z,36.80
2019-02-18T09:58:59.187Z,35.90
2019-02-18T09:59:59.174Z,35.00
2019-02-18T10:00:59.160Z,33.20
2019-02-18T10:01:59.156Z,34.20
2019-02-18T10:02:59.151Z,29.40
2019-02-18T10:03:59.148Z,30.90
2019-02-18T10:04:59.119Z,31.30
2019-02-18T10:05:59.103Z,31.60
2019-02-18T10:06:59.091Z,27.40
2019-02-18T10:07:59.128Z,27.90
2019-02-18T10:08:59.083Z,28.50
2019-02-18T10:09:59.061Z,28.80
2019-02-18T10:10:59.056Z,30.50
2019-02-18T10:11:59.040Z,32.10
2019-02-18T10:12:59.772Z,31.50
2019-02-18T10:13:59.015Z,34.20
2019-02-18T10:14:59.008Z,27.50
2019-02-18T10:15:59.007Z,33.10
2019-02-18T10:16:58.995Z,30.70
2019-02-18T10:17:58.971Z,30.50
2019-02-18T10:18:58.964Z,31.00
2019-02-18T10:19:58.954Z,31.60
2019-02-18T10:20:58.950Z,30.80
2019-02-18T10:21:58.940Z,32.60
2019-02-18T10:22:58.919Z,31.40
2019-02-18T10:23:58.909Z,30.00
2019-02-18T10:24:58.894Z,29.40
2019-02-18T10:25:58.957Z,33.00
2019-02-18T10:26:58.874Z,29.10
2019-02-18T10:27:58.866Z,28.00
2019-02-18T10:28:58.855Z,32.80
2019-02-18T10:29:58.856Z,30.40
2019-02-18T10:30:58.831Z,27.40
2019-02-18T10:31:58.833Z,30.60
2019-02-18T10:32:58.811Z,29.80
2019-02-18T10:33:58.800Z,28.10
2019-02-18T10:34:58.791Z,29.60
2019-02-18T10:35:58.803Z,34.00
2019-02-18T10:36:58.763Z,28.80
2019-02-18T10:37:58.757Z,31.50
2019-02-18T10:38:58.747Z,32.50
2019-02-18T10:39:58.755Z,29.00
2019-02-18T10:41:06.630Z,26.80
2019-02-18T10:41:59.756Z,30.40
2019-02-18T10:42:58.703Z,28.30
2019-02-18T10:43:58.690Z,33.50
2019-02-18T10:44:58.682Z,29.60
2019-02-18T10:45:58.667Z,28.80
2019-02-18T10:46:58.656Z,28.50
2019-02-18T10:47:58.660Z,30.50
2019-02-18T10:48:58.639Z,27.90
2019-02-18T10:49:58.632Z,30.50
2019-02-18T10:50:58.620Z,28.70
2019-02-18T10:51:58.607Z,29.10
2019-02-18T10:52:58.628Z,30.40
2019-02-18T10:53:58.656Z,27.10
2019-02-18T10:54:58.567Z,27.30
2019-02-18T10:55:58.557Z,32.70
2019-02-18T10:56:58.545Z,26.20
2019-02-18T10:57:58.569Z,30.50
2019-02-18T10:58:58.528Z,26.80
2019-02-18T10:59:59.290Z,28.80
2019-02-18T11:00:58.503Z,26.90
2019-02-18T11:01:58.492Z,27.90
2019-02-18T11:02:58.514Z,29.00
2019-02-18T11:03:58.485Z,27.20
2019-02-18T11:04:58.462Z,29.30
2019-02-18T11:05:58.456Z,25.40
2019-02-18T11:06:58.445Z,26.60
2019-02-18T11:07:58.431Z,26.10
2019-02-18T11:08:58.437Z,25.80
2019-02-18T11:09:58.404Z,24.30
2019-02-18T11:10:58.393Z,26.30
2019-02-18T11:11:58.382Z,27.40
2019-02-18T11:12:58.374Z,25.70
2019-02-18T11:13:58.367Z,28.50
2019-02-18T11:14:58.363Z,26.60
2019-02-18T11:15:58.361Z,26.90
2019-02-18T11:16:58.329Z,24.40
2019-02-18T11:17:58.317Z,28.20
2019-02-18T11:18:58.314Z,24.30
2019-02-18T11:19:58.299Z,28.30
2019-02-18T11:20:58.285Z,25.00
2019-02-18T11:21:58.277Z,26.90
2019-02-18T11:22:58.267Z,28.50
2019-02-18T11:23:58.285Z,22.70
2019-02-18T11:24:58.241Z,26.00
2019-02-18T11:25:58.234Z,26.60
2019-02-18T11:26:58.218Z,28.00
2019-02-18T11:27:58.208Z,24.60
2019-02-18T11:28:58.209Z,28.30
2019-02-18T11:29:58.218Z,26.10
2019-02-18T11:30:58.177Z,26.50
2019-02-18T11:31:58.163Z,25.90
2019-02-18T11:32:58.153Z,25.20
2019-02-18T11:33:58.141Z,29.00
2019-02-18T11:35:00.035Z,27.60
2019-02-18T11:35:58.135Z,25.30
2019-02-18T11:36:58.109Z,25.80
2019-02-18T11:37:58.098Z,27.70
2019-02-18T11:38:58.113Z,25.40
2019-02-18T11:39:58.084Z,24.90
2019-02-18T11:40:58.131Z,23.70
2019-02-18T11:41:58.054Z,27.10
2019-02-18T11:42:58.043Z,23.70
2019-02-18T11:43:58.036Z,23.70
2019-02-18T11:44:58.028Z,26.10
2019-02-18T11:45:58.009Z,25.90
2019-02-18T11:46:58.008Z,25.80
2019-02-18T11:47:57.994Z,23.90
2019-02-18T11:48:57.981Z,25.40
2019-02-18T11:49:57.966Z,25.80
2019-02-18T11:50:57.964Z,27.80
2019-02-18T11:52:00.057Z,26.00
2019-02-18T11:52:57.932Z,25.70
2019-02-18T11:53:57.927Z,28.40
2019-02-18T11:54:57.916Z,25.40
2019-02-18T11:55:57.901Z,27.90
2019-02-18T11:56:57.895Z,27.30
2019-02-18T11:57:57.919Z,29.80
2019-02-18T11:58:57.876Z,26.00
2019-02-18T11:59:57.860Z,25.80
2019-02-18T12:00:57.858Z,24.30
2019-02-18T12:01:57.871Z,27.60
2019-02-18T12:03:58.818Z,26.70
2019-02-18T12:04:57.800Z,26.30
2019-02-18T12:05:57.798Z,26.40
2019-02-18T12:06:57.786Z,27.40
2019-02-18T12:07:57.783Z,24.50
2019-02-18T12:08:57.762Z,25.80
2019-02-18T12:09:57.752Z,29.50
2019-02-18T12:10:57.735Z,27.40
2019-02-18T12:11:57.728Z,26.20
2019-02-18T12:12:57.730Z,26.90
2019-02-18T12:13:57.704Z,27.30
2019-02-18T12:14:57.761Z,27.20
2019-02-18T12:15:57.688Z,25.60
2019-02-18T12:16:57.679Z,25.60
2019-02-18T12:17:57.667Z,27.60
2019-02-18T12:18:57.678Z,28.10
2019-02-18T12:19:57.640Z,27.20
2019-02-18T12:20:57.635Z,27.90
2019-02-18T12:21:57.624Z,27.70
2019-02-18T12:22:57.612Z,26.90
2019-02-18T12:23:57.616Z,26.30
2019-02-18T12:24:57.605Z,24.90
2019-02-18T12:25:57.589Z,27.90
2019-02-18T12:26:57.574Z,24.20
2019-02-18T12:27:57.574Z,26.90
2019-02-18T12:28:57.549Z,25.60
2019-02-18T12:29:57.547Z,27.10
2019-02-18T12:30:57.527Z,27.60
2019-02-18T12:31:57.515Z,26.20
2019-02-18T12:32:57.499Z,25.70
2019-02-18T12:33:57.488Z,27.60
2019-02-18T12:34:57.501Z,29.00
2019-02-18T12:35:57.478Z,27.10
2019-02-18T12:36:57.461Z,27.50
2019-02-18T12:37:57.445Z,28.80
2019-02-18T12:38:57.439Z,26.10
2019-02-18T12:39:57.438Z,28.10
2019-02-18T12:40:57.415Z,26.70
2019-02-18T12:41:57.404Z,29.10
2019-02-18T12:42:57.394Z,27.00
2019-02-18T12:43:57.386Z,30.30
2019-02-18T12:44:57.377Z,25.60
2019-02-18T12:45:57.371Z,29.00
2019-02-18T12:46:57.354Z,30.20
2019-02-18T12:47:57.342Z,31.10
2019-02-18T12:48:57.336Z,30.10
2019-02-18T12:49:57.320Z,27.30
2019-02-18T12:50:57.315Z,28.00